Weather at Föderlach Heliport

Public forecast

Using degrees Celsius for public forecast. Weather courtesy of forecast.io.

Closest aviation weather report (METAR) to Föderlach Heliport

Closest report is Klagenfurt Airport, 16.2 nm (30.0 km) E.

2024/05/20 06:20 (retrieved 29 minutes ago)

LOWK 200620Z AUTO 32003KT 270V040 9999 NCD 15/09 Q1013 NOSIG

Closest aviation forecast (TAF) to Föderlach Heliport

Closest forecast is Klagenfurt Airport, 16.2 nm (30.0 km) E.

2024/05/20 06:21 (retrieved 28 minutes ago)

TAF LOWK 200515Z 2006/2106 VRB04KT CAVOK TX24/2014Z TN14/2006Z TEMPO 2009/2017 12008KT FM210000 VRB05KT 9999 -RA FEW014 BKN030 TEMPO 2100/2106 4000 SHRA BKN014 SCT030CB